Time;durP1;ratioP1;P1;durP2;ratioP2;P2;SDS_P1;SDS_P2;PMS_P1;PMS_P2;Temp;Humidity;BMP_temperature;BMP_pressure;BME280_temperature;BME280_humidity;BME280_pressure;Samples;Min_cycle;Max_cycle;Signal;HPM_P1;HPM_P2
2021/08/04 00:00:40;;;;;;;5.18;1.73;;;;;;;;;;6252029;22;20027;-83
2021/08/04 00:03:07;;;;;;;3.88;1.63;;;;;;;;;;6292168;22;20089;-81
2021/08/04 00:05:34;;;;;;;2.20;1.73;;;;;;;;;;6293275;22;20455;-81
2021/08/04 00:08:01;;;;;;;2.30;2.03;;;;;;;;;;6252602;22;20024;-82
2021/08/04 00:10:35;;;;;;;2.03;1.80;;;;;;;;;;6250546;22;20114;-81
2021/08/04 00:13:01;;;;;;;4.60;2.03;;;;;;;;;;6282534;22;20020;-81
2021/08/04 00:15:28;;;;;;;4.25;2.22;;;;;;;;;;6262160;22;20035;-81
2021/08/04 00:18:01;;;;;;;3.28;2.08;;;;;;;;;;6249686;22;20045;-82
2021/08/04 00:20:27;;;;;;;3.72;1.90;;;;;;;;;;6275651;22;20294;-82
2021/08/04 00:22:54;;;;;;;4.18;1.90;;;;;;;;;;6275086;22;20047;-82
2021/08/04 00:25:21;;;;;;;5.18;2.33;;;;;;;;;;6275604;22;20044;-82
2021/08/04 00:27:47;;;;;;;2.70;1.95;;;;;;;;;;6277152;22;20023;-82
2021/08/04 00:30:14;;;;;;;4.10;2.03;;;;;;;;;;6253132;22;20031;-82
2021/08/04 00:32:41;;;;;;;3.00;2.15;;;;;;;;;;6248720;22;20223;-82
2021/08/04 00:35:09;;;;;;;3.88;2.30;;;;;;;;;;6300441;22;20138;-82
2021/08/04 00:37:35;;;;;;;4.97;2.20;;;;;;;;;;6251014;22;20028;-82
2021/08/04 00:40:03;;;;;;;5.65;2.40;;;;;;;;;;6251719;22;20032;-81
2021/08/04 00:42:30;;;;;;;5.00;2.55;;;;;;;;;;6250637;22;20030;-82
2021/08/04 00:44:58;;;;;;;2.75;2.25;;;;;;;;;;6249190;22;20058;-81
2021/08/04 00:47:25;;;;;;;5.68;2.22;;;;;;;;;;6250688;22;20027;-81
2021/08/04 00:49:52;;;;;;;4.78;2.47;;;;;;;;;;6276137;22;20019;-81
2021/08/04 00:52:20;;;;;;;3.17;2.50;;;;;;;;;;6277097;22;20321;-81
2021/08/04 00:54:49;;;;;;;3.92;2.50;;;;;;;;;;6249608;22;20337;-80
2021/08/04 00:57:19;;;;;;;3.88;2.88;;;;;;;;;;6249043;22;20117;-83
2021/08/04 00:59:46;;;;;;;3.83;2.45;;;;;;;;;;6248916;22;20034;-80
2021/08/04 01:02:21;;;;;;;3.22;2.53;;;;;;;;;;6247937;22;20027;-80
2021/08/04 01:04:51;;;;;;;4.73;2.50;;;;;;;;;;6249917;22;20081;-80
2021/08/04 01:07:23;;;;;;;5.57;3.13;;;;;;;;;;6250982;22;20645;-80
2021/08/04 01:09:52;;;;;;;5.25;2.80;;;;;;;;;;6250201;22;20023;-80
2021/08/04 01:12:21;;;;;;;4.82;3.22;;;;;;;;;;6251715;22;20031;-81
2021/08/04 01:14:51;;;;;;;3.30;2.90;;;;;;;;;;6254660;22;20067;-83
2021/08/04 01:17:23;;;;;;;3.67;3.00;;;;;;;;;;6299019;22;20031;-82
2021/08/04 01:20:02;;;;;;;6.10;3.67;;;;;;;;;;6297160;22;20047;-82
2021/08/04 01:22:47;;;;;;;9.77;3.60;;;;;;;;;;6251541;22;20271;-82
2021/08/04 01:25:16;;;;;;;5.18;3.85;;;;;;;;;;6278963;22;20095;-84
2021/08/04 01:27:47;;;;;;;6.00;3.63;;;;;;;;;;6280699;22;20024;-84
2021/08/04 01:30:14;;;;;;;6.80;3.60;;;;;;;;;;6279783;22;20023;-84
2021/08/04 01:32:41;;;;;;;4.93;3.08;;;;;;;;;;6249262;22;20031;-84
2021/08/04 01:35:09;;;;;;;6.75;3.40;;;;;;;;;;6253558;22;20027;-84
2021/08/04 01:37:37;;;;;;;4.70;3.53;;;;;;;;;;6280949;22;20039;-83
2021/08/04 01:40:05;;;;;;;4.55;3.30;;;;;;;;;;6254149;22;20114;-84
2021/08/04 01:42:33;;;;;;;8.70;3.10;;;;;;;;;;6281301;22;20031;-84
2021/08/04 01:45:00;;;;;;;6.38;3.53;;;;;;;;;;6280516;22;20023;-84
2021/08/04 01:47:29;;;;;;;7.28;3.20;;;;;;;;;;6279881;22;20024;-84
2021/08/04 01:49:56;;;;;;;3.25;2.67;;;;;;;;;;6281868;22;20023;-84
2021/08/04 01:52:23;;;;;;;5.80;3.20;;;;;;;;;;6282925;22;20034;-83
2021/08/04 01:54:50;;;;;;;3.90;2.58;;;;;;;;;;6254992;22;20135;-83
2021/08/04 01:57:16;;;;;;;2.85;2.30;;;;;;;;;;6254658;22;20034;-83
2021/08/04 01:59:44;;;;;;;3.95;2.50;;;;;;;;;;6282291;22;20103;-83
2021/08/04 02:02:14;;;;;;;4.50;2.63;;;;;;;;;;6282885;22;20031;-84
2021/08/04 02:04:44;;;;;;;4.35;2.28;;;;;;;;;;6281790;22;20023;-83
2021/08/04 02:07:15;;;;;;;5.25;2.40;;;;;;;;;;6256791;22;20031;-84
2021/08/04 02:09:46;;;;;;;5.30;2.67;;;;;;;;;;6284837;22;20072;-83
2021/08/04 02:12:16;;;;;;;4.75;2.50;;;;;;;;;;6270853;22;20014;-84
2021/08/04 02:15:03;;;;;;;5.78;2.20;;;;;;;;;;6264155;22;20031;-83
2021/08/04 02:17:47;;;;;;;4.68;2.25;;;;;;;;;;6258076;22;20389;-83
2021/08/04 02:20:22;;;;;;;3.50;2.03;;;;;;;;;;6259163;22;20031;-84
2021/08/04 02:22:56;;;;;;;3.47;2.42;;;;;;;;;;6259015;22;20079;-84
2021/08/04 02:25:35;;;;;;;2.70;1.98;;;;;;;;;;6283703;22;20024;-85
2021/08/04 02:28:04;;;;;;;2.78;2.10;;;;;;;;;;6284110;22;20067;-84
2021/08/04 02:30:31;;;;;;;3.25;1.58;;;;;;;;;;6257823;22;20337;-84
2021/08/04 02:32:59;;;;;;;4.93;1.85;;;;;;;;;;6272946;22;20335;-84
2021/08/04 02:35:26;;;;;;;6.40;2.00;;;;;;;;;;6225316;23;20024;-83
2021/08/04 02:37:56;;;;;;;4.68;2.05;;;;;;;;;;6228079;23;20095;-84
2021/08/04 02:40:24;;;;;;;4.63;2.15;;;;;;;;;;6229602;23;20024;-84
2021/08/04 02:42:51;;;;;;;4.93;1.98;;;;;;;;;;6230526;23;20031;-84
2021/08/04 02:45:19;;;;;;;3.15;1.45;;;;;;;;;;6254640;23;20224;-83
2021/08/04 02:47:46;;;;;;;8.07;1.77;;;;;;;;;;6253154;23;20024;-83
2021/08/04 02:50:13;;;;;;;1.92;1.38;;;;;;;;;;6225069;23;20047;-84
2021/08/04 02:52:41;;;;;;;2.17;1.83;;;;;;;;;;6225773;23;20119;-84
2021/08/04 02:55:08;;;;;;;3.35;1.33;;;;;;;;;;6225928;23;20070;-83
2021/08/04 02:57:35;;;;;;;3.10;1.75;;;;;;;;;;6224196;23;20104;-83
2021/08/04 03:00:05;;;;;;;3.30;1.48;;;;;;;;;;6226587;23;20037;-83
2021/08/04 03:02:33;;;;;;;2.58;1.60;;;;;;;;;;6224000;23;20017;-84
2021/08/04 03:05:00;;;;;;;2.90;2.00;;;;;;;;;;6251297;23;20024;-84
2021/08/04 03:07:29;;;;;;;2.78;1.75;;;;;;;;;;6251166;23;20028;-84
2021/08/04 03:10:00;;;;;;;2.25;1.90;;;;;;;;;;6270862;22;20012;-84
2021/08/04 03:12:26;;;;;;;5.03;1.83;;;;;;;;;;6267235;23;20055;-83
2021/08/04 03:14:53;;;;;;;2.95;2.03;;;;;;;;;;6224739;23;20035;-83
2021/08/04 03:17:20;;;;;;;3.00;2.00;;;;;;;;;;6223432;23;20302;-83
2021/08/04 03:19:46;;;;;;;3.50;2.17;;;;;;;;;;6232937;23;20016;-82
2021/08/04 03:22:13;;;;;;;3.22;2.15;;;;;;;;;;6268137;22;20012;-82
2021/08/04 03:24:41;;;;;;;3.55;2.10;;;;;;;;;;6251310;23;20146;-83
2021/08/04 03:27:07;;;;;;;4.72;2.40;;;;;;;;;;6223954;23;20027;-82
2021/08/04 03:29:34;;;;;;;3.05;1.73;;;;;;;;;;6223776;23;20466;-82
2021/08/04 03:32:01;;;;;;;5.85;2.00;;;;;;;;;;6223804;23;20397;-82
2021/08/04 03:34:27;;;;;;;2.80;2.13;;;;;;;;;;6279377;22;20037;-82
2021/08/04 03:36:54;;;;;;;2.88;2.03;;;;;;;;;;6255122;22;20364;-82
2021/08/04 03:39:20;;;;;;;3.97;1.90;;;;;;;;;;6254513;22;20123;-82
2021/08/04 03:41:50;;;;;;;3.13;1.90;;;;;;;;;;6281876;22;20067;-83
2021/08/04 03:44:23;;;;;;;3.45;2.38;;;;;;;;;;6280334;22;20030;-81
2021/08/04 03:46:49;;;;;;;4.40;2.60;;;;;;;;;;6255365;22;20024;-82
2021/08/04 03:49:19;;;;;;;2.90;1.90;;;;;;;;;;6255478;22;20362;-82
2021/08/04 03:51:45;;;;;;;4.18;2.85;;;;;;;;;;6253342;22;20042;-81
2021/08/04 03:54:12;;;;;;;5.20;2.53;;;;;;;;;;6278902;22;20027;-82
2021/08/04 03:56:39;;;;;;;3.20;2.65;;;;;;;;;;6253745;22;20034;-81
2021/08/04 03:59:05;;;;;;;3.00;2.53;;;;;;;;;;6254469;22;20024;-81
2021/08/04 04:01:35;;;;;;;4.80;2.72;;;;;;;;;;6252150;22;20445;-81
2021/08/04 04:04:02;;;;;;;4.25;2.85;;;;;;;;;;6253365;22;20031;-82
2021/08/04 04:06:28;;;;;;;3.58;2.30;;;;;;;;;;6253664;22;20023;-82
2021/08/04 04:08:55;;;;;;;3.00;2.50;;;;;;;;;;6281104;22;20401;-82
2021/08/04 04:11:22;;;;;;;3.20;2.72;;;;;;;;;;6253174;22;20415;-82
2021/08/04 04:13:48;;;;;;;3.15;2.38;;;;;;;;;;6278655;22;20162;-82
2021/08/04 04:16:19;;;;;;;6.22;2.70;;;;;;;;;;6253179;22;20024;-81
2021/08/04 04:18:49;;;;;;;4.18;2.50;;;;;;;;;;6253063;22;20041;-81
2021/08/04 04:21:16;;;;;;;5.15;2.75;;;;;;;;;;6264445;22;20023;-82
2021/08/04 04:23:43;;;;;;;4.55;2.90;;;;;;;;;;6275838;22;20020;-82
2021/08/04 04:26:11;;;;;;;5.10;2.22;;;;;;;;;;6277503;22;20051;-82
2021/08/04 04:28:38;;;;;;;4.18;2.60;;;;;;;;;;6253972;22;20038;-82
2021/08/04 04:31:04;;;;;;;3.13;2.45;;;;;;;;;;6285815;22;20034;-82
2021/08/04 04:33:31;;;;;;;4.95;2.63;;;;;;;;;;6271790;22;20047;-82
2021/08/04 04:35:58;;;;;;;4.78;2.92;;;;;;;;;;6292622;22;20421;-81
2021/08/04 04:38:25;;;;;;;6.03;2.72;;;;;;;;;;6254072;22;20321;-82
2021/08/04 04:40:52;;;;;;;4.32;2.95;;;;;;;;;;6278313;22;20309;-82
2021/08/04 04:43:19;;;;;;;5.75;2.90;;;;;;;;;;6251547;22;20030;-81
2021/08/04 04:45:47;;;;;;;6.07;3.58;;;;;;;;;;6251948;22;20032;-82
2021/08/04 04:48:15;;;;;;;4.88;2.67;;;;;;;;;;6280020;22;20093;-82
2021/08/04 04:50:41;;;;;;;3.92;2.90;;;;;;;;;;6276691;22;20413;-81
2021/08/04 04:53:08;;;;;;;5.20;3.00;;;;;;;;;;6275983;22;20042;-81
2021/08/04 04:55:34;;;;;;;4.13;2.88;;;;;;;;;;6278171;22;20053;-82
2021/08/04 04:58:02;;;;;;;5.13;3.38;;;;;;;;;;6278704;22;20023;-83
2021/08/04 05:00:29;;;;;;;3.50;2.80;;;;;;;;;;6253140;22;20042;-84
2021/08/04 05:02:55;;;;;;;5.28;2.85;;;;;;;;;;6279912;22;20344;-82
2021/08/04 05:05:22;;;;;;;7.35;3.45;;;;;;;;;;6280884;22;20077;-81
2021/08/04 05:07:49;;;;;;;4.15;2.70;;;;;;;;;;6256388;22;20024;-81
2021/08/04 05:10:16;;;;;;;5.63;3.10;;;;;;;;;;6281945;22;20024;-81
2021/08/04 05:12:42;;;;;;;4.57;2.65;;;;;;;;;;6284109;22;20047;-81
2021/08/04 05:15:10;;;;;;;5.75;3.10;;;;;;;;;;6263199;22;20089;-80
2021/08/04 05:17:39;;;;;;;6.50;3.85;;;;;;;;;;6265221;22;20049;-82
2021/08/04 05:20:08;;;;;;;8.55;3.30;;;;;;;;;;6288594;22;20257;-81
2021/08/04 05:22:40;;;;;;;5.93;3.45;;;;;;;;;;6289026;22;20012;-81
2021/08/04 05:25:07;;;;;;;7.43;3.30;;;;;;;;;;6290313;22;20019;-82
2021/08/04 05:27:34;;;;;;;4.70;3.10;;;;;;;;;;6280503;22;20197;-84
2021/08/04 05:30:00;;;;;;;5.07;3.65;;;;;;;;;;6280251;22;20425;-81
2021/08/04 05:32:27;;;;;;;6.05;3.30;;;;;;;;;;6279968;22;20034;-81
2021/08/04 05:34:54;;;;;;;6.00;3.35;;;;;;;;;;6251332;23;20469;-82
2021/08/04 05:37:20;;;;;;;5.85;3.45;;;;;;;;;;6251273;23;20099;-83
2021/08/04 05:39:47;;;;;;;6.78;2.97;;;;;;;;;;6220901;23;20052;-82
2021/08/04 05:42:14;;;;;;;5.70;3.20;;;;;;;;;;6220577;23;20077;-83
2021/08/04 05:44:41;;;;;;;5.45;3.45;;;;;;;;;;6218803;23;20039;-81
2021/08/04 05:47:07;;;;;;;3.92;2.97;;;;;;;;;;6220968;23;20055;-82
2021/08/04 05:49:34;;;;;;;11.43;3.83;;;;;;;;;;6249135;23;20092;-82
2021/08/04 05:52:01;;;;;;;4.18;2.88;;;;;;;;;;6245129;23;20222;-80
2021/08/04 05:54:31;;;;;;;5.47;2.90;;;;;;;;;;6225358;23;20024;-82
2021/08/04 05:56:58;;;;;;;5.85;3.13;;;;;;;;;;6227697;23;20078;-81
2021/08/04 05:59:24;;;;;;;5.43;2.72;;;;;;;;;;6254858;23;20032;-81
2021/08/04 06:01:51;;;;;;;4.07;2.97;;;;;;;;;;6253187;23;20052;-82
2021/08/04 06:04:18;;;;;;;9.95;3.03;;;;;;;;;;6244340;23;20020;-84
2021/08/04 06:06:45;;;;;;;8.18;3.13;;;;;;;;;;6244680;23;20289;-83
2021/08/04 06:09:11;;;;;;;3.67;2.38;;;;;;;;;;6243427;23;20107;-82
2021/08/04 06:11:38;;;;;;;7.85;3.53;;;;;;;;;;6243422;23;20016;-82
2021/08/04 06:14:05;;;;;;;2.90;2.53;;;;;;;;;;6241750;23;20028;-82
2021/08/04 06:16:32;;;;;;;5.53;2.95;;;;;;;;;;6256725;23;20012;-81
2021/08/04 06:18:58;;;;;;;4.68;2.85;;;;;;;;;;6235062;22;20028;-81
2021/08/04 06:21:28;;;;;;;5.85;2.67;;;;;;;;;;6248004;23;20032;-82
2021/08/04 06:23:55;;;;;;;7.93;3.20;;;;;;;;;;6218632;23;20024;-82
2021/08/04 06:26:21;;;;;;;5.47;3.03;;;;;;;;;;6247028;23;20012;-81
2021/08/04 06:28:49;;;;;;;4.97;3.10;;;;;;;;;;6259579;23;20023;-81
2021/08/04 06:31:15;;;;;;;7.53;3.30;;;;;;;;;;6247179;23;20103;-81
2021/08/04 06:33:42;;;;;;;7.75;2.90;;;;;;;;;;6234482;22;20028;-82
2021/08/04 06:36:11;;;;;;;10.57;2.70;;;;;;;;;;6273604;22;20028;-81
2021/08/04 06:38:38;;;;;;;5.43;2.58;;;;;;;;;;6245637;22;20028;-80
2021/08/04 06:41:07;;;;;;;4.43;2.50;;;;;;;;;;6245637;22;20114;-83
2021/08/04 06:43:34;;;;;;;5.78;2.70;;;;;;;;;;6271211;22;20130;-81
2021/08/04 06:46:09;;;;;;;2.45;2.20;;;;;;;;;;6246519;22;20066;-82
2021/08/04 06:48:40;;;;;;;5.90;2.60;;;;;;;;;;6274586;22;20059;-82
2021/08/04 06:51:11;;;;;;;5.60;2.50;;;;;;;;;;6245943;22;20472;-82
2021/08/04 06:53:37;;;;;;;4.93;2.17;;;;;;;;;;6272231;22;20480;-81
2021/08/04 06:56:04;;;;;;;7.43;2.78;;;;;;;;;;6245572;22;20343;-82
2021/08/04 06:58:31;;;;;;;6.40;2.30;;;;;;;;;;6274693;22;20027;-83
2021/08/04 07:00:58;;;;;;;3.97;1.92;;;;;;;;;;6273457;22;20074;-81
2021/08/04 07:03:31;;;;;;;5.30;2.63;;;;;;;;;;6273128;22;20194;-81
2021/08/04 07:05:58;;;;;;;5.65;2.08;;;;;;;;;;6272301;22;20024;-82
2021/08/04 07:08:24;;;;;;;6.80;2.20;;;;;;;;;;6244489;22;20027;-81
2021/08/04 07:10:52;;;;;;;3.40;2.13;;;;;;;;;;6271515;22;20190;-81
2021/08/04 07:13:19;;;;;;;5.18;2.28;;;;;;;;;;6271811;22;20192;-81
2021/08/04 07:15:45;;;;;;;2.97;2.40;;;;;;;;;;6274099;22;20028;-81
2021/08/04 07:18:12;;;;;;;5.15;2.08;;;;;;;;;;6245490;22;20245;-82
2021/08/04 07:20:39;;;;;;;4.68;2.10;;;;;;;;;;6245687;22;20390;-81
2021/08/04 07:23:05;;;;;;;3.28;2.08;;;;;;;;;;6270646;22;20024;-81
2021/08/04 07:25:32;;;;;;;3.30;2.25;;;;;;;;;;6242613;22;20012;-80
2021/08/04 07:27:59;;;;;;;3.92;2.08;;;;;;;;;;6272593;22;20030;-81
2021/08/04 07:30:26;;;;;;;3.40;1.60;;;;;;;;;;6269731;22;20179;-81
2021/08/04 07:32:53;;;;;;;4.07;2.20;;;;;;;;;;6269016;22;20269;-81
2021/08/04 07:35:20;;;;;;;3.70;2.00;;;;;;;;;;6268082;22;20181;-81
2021/08/04 07:37:49;;;;;;;3.33;2.30;;;;;;;;;;6269206;22;20043;-81
2021/08/04 07:40:17;;;;;;;2.70;2.00;;;;;;;;;;6271152;22;20078;-80
2021/08/04 07:42:48;;;;;;;8.27;2.95;;;;;;;;;;6245505;22;20134;-82
2021/08/04 07:45:15;;;;;;;5.20;2.08;;;;;;;;;;6272776;22;20457;-81
2021/08/04 07:47:42;;;;;;;3.22;1.90;;;;;;;;;;6284043;22;20066;-81
2021/08/04 07:50:10;;;;;;;3.58;1.90;;;;;;;;;;6266392;22;20186;-82
2021/08/04 07:52:36;;;;;;;3.83;2.17;;;;;;;;;;6282445;22;20311;-83
2021/08/04 07:55:06;;;;;;;4.93;2.10;;;;;;;;;;6246068;22;20454;-81
2021/08/04 07:57:33;;;;;;;3.53;1.98;;;;;;;;;;6246975;22;20130;-82
2021/08/04 08:00:00;;;;;;;4.90;2.22;;;;;;;;;;6249606;22;20038;-82
2021/08/04 08:02:36;;;;;;;2.63;2.05;;;;;;;;;;6245590;22;20453;-81
2021/08/04 08:05:03;;;;;;;5.93;2.50;;;;;;;;;;6270552;22;20059;-82
2021/08/04 08:07:30;;;;;;;4.13;2.10;;;;;;;;;;6271597;22;20396;-82
2021/08/04 08:09:57;;;;;;;4.55;2.65;;;;;;;;;;6271604;22;20019;-82
2021/08/04 08:12:24;;;;;;;2.58;1.90;;;;;;;;;;6245272;22;20020;-81
2021/08/04 08:14:52;;;;;;;3.55;1.90;;;;;;;;;;6274985;22;20106;-80
2021/08/04 08:17:19;;;;;;;6.50;2.38;;;;;;;;;;6274113;22;20027;-81
2021/08/04 08:19:52;;;;;;;4.22;2.03;;;;;;;;;;6245004;22;20086;-82
2021/08/04 08:22:19;;;;;;;7.45;2.10;;;;;;;;;;6245295;22;20024;-83
2021/08/04 08:24:46;;;;;;;4.60;2.15;;;;;;;;;;6272819;22;20030;-82
2021/08/04 08:27:22;;;;;;;4.53;1.80;;;;;;;;;;6247560;22;20016;-81
2021/08/04 08:29:49;;;;;;;4.88;2.35;;;;;;;;;;6273838;22;20024;-82
2021/08/04 08:32:15;;;;;;;3.78;2.20;;;;;;;;;;6242517;22;20074;-81
2021/08/04 08:34:48;;;;;;;5.32;1.80;;;;;;;;;;6270931;22;20142;-81
2021/08/04 08:37:15;;;;;;;3.92;2.38;;;;;;;;;;6270706;22;20117;-81
2021/08/04 08:39:41;;;;;;;4.20;2.05;;;;;;;;;;6272830;22;20034;-81
2021/08/04 08:42:08;;;;;;;7.82;2.50;;;;;;;;;;6246286;22;20023;-81
2021/08/04 08:44:35;;;;;;;4.68;2.53;;;;;;;;;;6244015;22;20237;-81
2021/08/04 08:47:06;;;;;;;4.40;2.63;;;;;;;;;;6266043;22;20051;-81
2021/08/04 08:49:33;;;;;;;2.70;2.15;;;;;;;;;;6239013;22;20024;-81
2021/08/04 08:51:59;;;;;;;5.95;2.80;;;;;;;;;;6265342;22;20074;-81
2021/08/04 08:54:26;;;;;;;3.38;2.22;;;;;;;;;;6265148;22;20279;-81
2021/08/04 08:56:56;;;;;;;3.72;1.80;;;;;;;;;;6266624;22;20106;-81
2021/08/04 08:59:29;;;;;;;3.05;2.25;;;;;;;;;;6269214;22;20093;-81
2021/08/04 09:01:56;;;;;;;4.68;1.95;;;;;;;;;;6237211;22;20157;-82
2021/08/04 09:04:23;;;;;;;11.35;3.13;;;;;;;;;;6260342;22;20510;-83
2021/08/04 09:07:00;;;;;;;3.05;1.90;;;;;;;;;;6263242;22;20318;-81
2021/08/04 09:09:30;;;;;;;5.38;2.75;;;;;;;;;;6241040;22;20350;-82
2021/08/04 09:12:05;;;;;;;5.20;2.42;;;;;;;;;;6266512;22;20028;-81
2021/08/04 09:14:33;;;;;;;4.63;2.10;;;;;;;;;;6239578;22;20422;-81
2021/08/04 09:17:05;;;;;;;4.13;2.00;;;;;;;;;;6238992;22;20085;-81
2021/08/04 09:19:33;;;;;;;5.28;1.80;;;;;;;;;;6265695;22;20098;-81
2021/08/04 09:22:07;;;;;;;8.10;2.20;;;;;;;;;;6267313;22;20031;-82
2021/08/04 09:24:53;;;;;;;5.35;2.20;;;;;;;;;;6285971;22;20050;-82
2021/08/04 09:27:19;;;;;;;6.55;2.25;;;;;;;;;;6262552;22;20031;-82
2021/08/04 09:29:58;;;;;;;3.58;2.38;;;;;;;;;;6247429;22;20328;-82
2021/08/04 09:32:28;;;;;;;3.20;1.98;;;;;;;;;;6275417;22;20023;-82
2021/08/04 09:34:55;;;;;;;4.50;2.20;;;;;;;;;;6249814;22;20016;-82
2021/08/04 09:37:22;;;;;;;3.25;2.17;;;;;;;;;;6229970;23;20083;-82
2021/08/04 09:39:56;;;;;;;2.60;2.13;;;;;;;;;;6212801;23;20030;-82
2021/08/04 09:42:40;;;;;;;3.22;2.13;;;;;;;;;;6212346;23;20055;-82
2021/08/04 09:45:07;;;;;;;7.32;2.08;;;;;;;;;;6237999;23;20038;-83
2021/08/04 09:47:34;;;;;;;4.13;2.20;;;;;;;;;;6234445;23;20191;-82
2021/08/04 09:50:03;;;;;;;8.48;2.22;;;;;;;;;;6235167;23;20136;-83
2021/08/04 09:52:30;;;;;;;6.18;2.47;;;;;;;;;;6208854;23;20094;-82
2021/08/04 09:55:17;;;;;;;8.85;2.90;;;;;;;;;;6236701;23;20051;-82
2021/08/04 09:57:45;;;;;;;5.00;2.45;;;;;;;;;;6212430;23;20024;-82
2021/08/04 10:00:13;;;;;;;7.15;2.10;;;;;;;;;;6239629;23;20522;-83
2021/08/04 10:02:40;;;;;;;4.80;2.60;;;;;;;;;;6240733;23;20028;-84
2021/08/04 10:05:19;;;;;;;6.25;2.90;;;;;;;;;;6211981;23;20025;-81
2021/08/04 10:08:02;;;;;;;5.40;2.65;;;;;;;;;;6212460;23;20107;-82
2021/08/04 10:10:46;;;;;;;7.60;2.60;;;;;;;;;;6237569;23;20067;-82
2021/08/04 10:13:14;;;;;;;4.57;2.65;;;;;;;;;;6212444;23;20051;-82
2021/08/04 10:15:43;;;;;;;4.68;2.58;;;;;;;;;;6211397;23;20020;-82
2021/08/04 10:18:11;;;;;;;11.00;5.15;;;;;;;;;;6236445;23;20032;-82
2021/08/04 10:20:38;;;;;;;28.38;13.95;;;;;;;;;;6212644;23;20024;-82
2021/08/04 10:23:06;;;;;;;16.15;8.13;;;;;;;;;;6242223;23;20095;-83
2021/08/04 10:25:33;;;;;;;10.35;5.45;;;;;;;;;;6212600;23;20024;-83
2021/08/04 10:28:03;;;;;;;6.13;3.45;;;;;;;;;;6213660;23;20115;-84
2021/08/04 10:30:31;;;;;;;7.97;4.38;;;;;;;;;;6239150;23;20286;-83
2021/08/04 10:32:58;;;;;;;6.10;2.72;;;;;;;;;;6241508;22;20034;-83
2021/08/04 10:35:25;;;;;;;4.63;2.20;;;;;;;;;;6242821;22;20119;-83
2021/08/04 10:37:52;;;;;;;3.17;2.47;;;;;;;;;;6272476;22;20034;-82
2021/08/04 10:40:19;;;;;;;6.60;2.45;;;;;;;;;;6242917;22;20082;-82
2021/08/04 10:42:48;;;;;;;4.30;1.90;;;;;;;;;;6241103;22;20016;-82
2021/08/04 10:45:24;;;;;;;3.83;2.17;;;;;;;;;;6230434;22;20295;-83
2021/08/04 10:47:51;;;;;;;3.35;2.10;;;;;;;;;;6240643;22;20291;-82
2021/08/04 10:50:18;;;;;;;4.55;2.83;;;;;;;;;;6242468;22;20024;-81
2021/08/04 10:52:57;;;;;;;3.80;2.22;;;;;;;;;;6268614;22;20024;-82
2021/08/04 10:55:24;;;;;;;13.07;2.40;;;;;;;;;;6240059;22;20032;-83
2021/08/04 10:58:03;;;;;;;6.05;2.28;;;;;;;;;;6244008;22;20050;-81
2021/08/04 11:00:30;;;;;;;3.33;2.30;;;;;;;;;;6272208;22;20417;-82
2021/08/04 11:02:57;;;;;;;4.63;2.35;;;;;;;;;;6275969;22;20184;-82
2021/08/04 11:05:24;;;;;;;3.92;2.03;;;;;;;;;;6288236;22;20027;-82
2021/08/04 11:08:10;;;;;;;4.20;1.95;;;;;;;;;;6286300;22;20038;-82
2021/08/04 11:10:38;;;;;;;2.78;2.00;;;;;;;;;;6254123;22;20525;-82
2021/08/04 11:13:04;;;;;;;3.85;2.42;;;;;;;;;;6281608;22;20027;-83
2021/08/04 11:15:32;;;;;;;7.95;2.72;;;;;;;;;;6277240;22;20027;-81
2021/08/04 11:18:07;;;;;;;6.57;2.33;;;;;;;;;;6275129;22;20074;-81
2021/08/04 11:20:34;;;;;;;;;;;;;;;;;;6254495;22;20019;-83
2021/08/04 11:23:05;;;;;;;;;;;;;;;;;;6256254;22;19927;-83
2021/08/04 11:25:35;;;;;;;5.28;2.47;;;;;;;;;;6246286;22;19925;-83
2021/08/04 11:28:05;;;;;;;3.85;2.53;;;;;;;;;;6272062;22;20024;-82
2021/08/04 11:30:31;;;;;;;4.50;2.03;;;;;;;;;;6272426;22;20050;-83
2021/08/04 11:33:17;;;;;;;5.18;2.60;;;;;;;;;;6247548;22;20035;-84
2021/08/04 11:35:44;;;;;;;3.65;2.00;;;;;;;;;;6252268;23;20078;-84
2021/08/04 11:38:11;;;;;;;3.28;2.30;;;;;;;;;;6228402;23;20024;-83
2021/08/04 11:40:38;;;;;;;4.55;2.33;;;;;;;;;;6255204;23;20051;-84
2021/08/04 11:43:07;;;;;;;3.45;2.17;;;;;;;;;;6252517;23;20128;-82
2021/08/04 11:45:34;;;;;;;4.35;2.33;;;;;;;;;;6244309;23;20083;-83
2021/08/04 11:48:01;;;;;;;2.50;1.90;;;;;;;;;;6212717;23;20254;-83
2021/08/04 11:50:42;;;;;;;4.32;2.00;;;;;;;;;;6244490;23;20107;-83
2021/08/04 11:53:09;;;;;;;4.55;2.22;;;;;;;;;;6212848;23;20265;-83
2021/08/04 11:55:35;;;;;;;6.90;1.80;;;;;;;;;;6240519;23;20028;-83
2021/08/04 11:58:02;;;;;;;4.25;1.75;;;;;;;;;;6242667;23;20036;-84
2021/08/04 12:00:29;;;;;;;2.85;1.88;;;;;;;;;;6241842;23;20430;-83
2021/08/04 12:02:59;;;;;;;3.05;1.70;;;;;;;;;;6219401;23;20035;-84
2021/08/04 12:05:25;;;;;;;4.30;1.55;;;;;;;;;;6216888;23;20028;-84
2021/08/04 12:07:52;;;;;;;3.95;2.28;;;;;;;;;;6213969;23;20024;-84
2021/08/04 12:10:20;;;;;;;4.05;2.20;;;;;;;;;;6212632;23;20020;-85
2021/08/04 12:12:50;;;;;;;4.78;2.40;;;;;;;;;;6221749;23;20020;-84
2021/08/04 12:15:18;;;;;;;8.80;2.33;;;;;;;;;;6225633;23;20043;-84
2021/08/04 12:17:50;;;;;;;6.43;2.03;;;;;;;;;;6222790;23;20024;-85
2021/08/04 12:20:21;;;;;;;6.03;2.42;;;;;;;;;;6222216;23;20050;-85
2021/08/04 12:23:01;;;;;;;3.20;1.83;;;;;;;;;;6225795;23;20088;-85
2021/08/04 12:25:35;;;;;;;3.15;1.55;;;;;;;;;;6228047;23;20023;-85
2021/08/04 12:28:03;;;;;;;3.28;1.83;;;;;;;;;;6228896;23;20024;-85
2021/08/04 12:30:32;;;;;;;5.88;2.22;;;;;;;;;;6255838;22;20059;-84
2021/08/04 12:33:03;;;;;;;4.65;1.85;;;;;;;;;;6232357;22;20016;-85
2021/08/04 12:35:46;;;;;;;4.57;2.03;;;;;;;;;;6286219;22;20024;-85
2021/08/04 12:38:17;;;;;;;11.00;2.03;;;;;;;;;;6251890;22;20201;-85
2021/08/04 12:40:54;;;;;;;3.60;1.45;;;;;;;;;;6276717;22;20062;-84
2021/08/04 12:43:21;;;;;;;4.88;2.42;;;;;;;;;;6263067;22;20027;-84
2021/08/04 12:45:48;;;;;;;3.08;1.63;;;;;;;;;;6254933;22;20101;-85
2021/08/04 12:48:42;;;;;;;5.90;1.95;;;;;;;;;;6246320;22;20093;-84
2021/08/04 12:51:16;;;;;;;2.47;1.58;;;;;;;;;;6264835;22;20134;-84
2021/08/04 12:54:10;;;;;;;2.15;1.48;;;;;;;;;;6272064;22;20236;-84
2021/08/04 12:56:40;;;;;;;5.32;1.73;;;;;;;;;;6242179;22;20302;-84
2021/08/04 12:59:13;;;;;;;3.60;1.92;;;;;;;;;;6271304;22;20434;-84
2021/08/04 13:01:41;;;;;;;2.65;1.85;;;;;;;;;;6271475;22;20063;-85
2021/08/04 13:04:13;;;;;;;4.63;1.85;;;;;;;;;;6272727;22;20034;-85
2021/08/04 13:06:50;;;;;;;3.60;2.00;;;;;;;;;;6245005;22;20079;-85
2021/08/04 13:09:24;;;;;;;3.25;1.73;;;;;;;;;;6260336;22;20024;-85
2021/08/04 13:12:09;;;;;;;3.40;1.70;;;;;;;;;;6270896;22;20058;-85
2021/08/04 13:14:55;;;;;;;2.58;1.83;;;;;;;;;;6244562;22;20028;-84
2021/08/04 13:17:24;;;;;;;3.72;1.80;;;;;;;;;;6274234;22;20240;-84
2021/08/04 13:20:20;;;;;;;4.38;1.88;;;;;;;;;;6248299;22;20020;-85
2021/08/04 13:22:57;;;;;;;3.55;1.65;;;;;;;;;;6216303;22;20118;-84
2021/08/04 13:25:28;;;;;;;5.03;1.55;;;;;;;;;;6284567;22;20024;-84
2021/08/04 13:28:28;;;;;;;8.27;1.80;;;;;;;;;;6284932;22;20072;-84
2021/08/04 13:30:57;;;;;;;1.88;1.30;;;;;;;;;;6216358;22;20054;-84
2021/08/04 13:33:24;;;;;;;5.85;1.73;;;;;;;;;;6280293;22;20024;-84
2021/08/04 13:35:54;;;;;;;3.03;1.70;;;;;;;;;;6247858;22;20036;-84
2021/08/04 13:38:21;;;;;;;3.65;1.92;;;;;;;;;;6271136;22;20036;-84
2021/08/04 13:40:48;;;;;;;4.68;1.88;;;;;;;;;;6269733;22;20293;-84
2021/08/04 13:43:25;;;;;;;3.38;1.67;;;;;;;;;;6240457;22;20213;-84
2021/08/04 13:45:52;;;;;;;4.55;1.85;;;;;;;;;;6244338;22;20102;-84
2021/08/04 13:48:19;;;;;;;2.97;1.50;;;;;;;;;;6267823;22;20050;-84
2021/08/04 13:50:46;;;;;;;3.80;2.13;;;;;;;;;;6275012;22;20024;-84
2021/08/04 13:53:19;;;;;;;3.28;1.65;;;;;;;;;;6275535;22;20279;-85
2021/08/04 13:55:46;;;;;;;3.60;1.75;;;;;;;;;;6252816;22;20038;-85
2021/08/04 13:58:12;;;;;;;3.42;1.77;;;;;;;;;;6280038;22;20031;-85
2021/08/04 14:00:40;;;;;;;3.88;1.60;;;;;;;;;;6273725;22;20023;-84
2021/08/04 14:03:07;;;;;;;3.05;1.50;;;;;;;;;;6269795;22;20191;-85
2021/08/04 14:05:44;;;;;;;4.38;1.40;;;;;;;;;;6242731;22;20035;-85
2021/08/04 14:08:19;;;;;;;2.53;1.38;;;;;;;;;;6269213;22;20020;-84
2021/08/04 14:10:45;;;;;;;4.70;1.48;;;;;;;;;;6270001;22;20132;-84
2021/08/04 14:13:12;;;;;;;5.13;1.45;;;;;;;;;;6243936;22;20024;-84
2021/08/04 14:15:42;;;;;;;2.95;1.50;;;;;;;;;;6242041;22;20023;-85
2021/08/04 14:18:08;;;;;;;2.67;1.60;;;;;;;;;;6270758;22;20023;-85
2021/08/04 14:20:36;;;;;;;5.15;1.60;;;;;;;;;;6259584;22;20064;-85
2021/08/04 14:23:06;;;;;;;5.95;1.38;;;;;;;;;;6261701;22;20231;-85
2021/08/04 14:25:33;;;;;;;5.65;1.80;;;;;;;;;;6249621;22;20089;-85
2021/08/04 14:28:02;;;;;;;3.33;1.38;;;;;;;;;;6242684;22;20027;-84
2021/08/04 14:30:29;;;;;;;2.05;1.10;;;;;;;;;;6269614;22;20051;-85
2021/08/04 14:32:55;;;;;;;2.10;1.70;;;;;;;;;;6240809;22;20402;-84
2021/08/04 14:35:22;;;;;;;2.70;1.42;;;;;;;;;;6213646;23;20107;-84
2021/08/04 14:37:51;;;;;;;2.65;1.48;;;;;;;;;;6215838;23;20032;-84
2021/08/04 14:40:18;;;;;;;5.63;1.48;;;;;;;;;;6240461;23;20402;-84
2021/08/04 14:42:45;;;;;;;2.45;1.40;;;;;;;;;;6212273;23;20029;-84
2021/08/04 14:45:12;;;;;;;3.20;1.38;;;;;;;;;;6212140;23;20031;-85
2021/08/04 14:47:43;;;;;;;4.80;1.45;;;;;;;;;;6241759;23;20402;-86
2021/08/04 14:50:10;;;;;;;2.67;1.52;;;;;;;;;;6245111;23;20075;-85
2021/08/04 14:52:37;;;;;;;5.35;1.65;;;;;;;;;;6246068;23;20019;-85
2021/08/04 14:55:08;;;;;;;4.75;1.42;;;;;;;;;;6221508;23;20024;-84